sensor_id;sensor_type;location;lat;lon;timestamp;P1;durP1;ratioP1;P2;durP2;ratioP2
79592;SDS011;69074;45.164;9.704;2023-10-09T00:01:24;33.7;;;21.4;;
79592;SDS011;69074;45.164;9.704;2023-10-09T00:03:49;33.7;;;21.4;;
79592;SDS011;69074;45.164;9.704;2023-10-09T00:06:14;33.7;;;21.4;;
79592;SDS011;69074;45.164;9.704;2023-10-09T00:08:39;33.7;;;21.4;;
79592;SDS011;69074;45.164;9.704;2023-10-09T00:11:04;33.7;;;21.4;;
79592;SDS011;69074;45.164;9.704;2023-10-09T00:13:29;33.7;;;21.4;;
79592;SDS011;69074;45.164;9.704;2023-10-09T00:15:54;22.0;;;13.1;;
79592;SDS011;69074;45.164;9.704;2023-10-09T00:18:19;22.0;;;13.1;;
79592;SDS011;69074;45.164;9.704;2023-10-09T00:20:44;22.0;;;13.1;;
79592;SDS011;69074;45.164;9.704;2023-10-09T00:23:09;22.0;;;13.1;;
79592;SDS011;69074;45.164;9.704;2023-10-09T00:25:34;22.0;;;13.1;;
79592;SDS011;69074;45.164;9.704;2023-10-09T00:27:59;22.0;;;13.1;;
79592;SDS011;69074;45.164;9.704;2023-10-09T00:30:24;22.0;;;13.1;;
79592;SDS011;69074;45.164;9.704;2023-10-09T00:32:49;21.4;;;11.7;;
79592;SDS011;69074;45.164;9.704;2023-10-09T00:35:14;21.4;;;11.7;;
79592;SDS011;69074;45.164;9.704;2023-10-09T00:37:39;21.4;;;11.7;;
79592;SDS011;69074;45.164;9.704;2023-10-09T00:40:04;21.4;;;11.7;;
79592;SDS011;69074;45.164;9.704;2023-10-09T00:42:29;21.4;;;11.7;;
79592;SDS011;69074;45.164;9.704;2023-10-09T00:44:54;21.4;;;11.7;;
79592;SDS011;69074;45.164;9.704;2023-10-09T00:47:19;19.0;;;10.8;;
79592;SDS011;69074;45.164;9.704;2023-10-09T00:49:44;19.0;;;10.8;;
79592;SDS011;69074;45.164;9.704;2023-10-09T00:52:09;19.0;;;10.8;;
79592;SDS011;69074;45.164;9.704;2023-10-09T00:54:34;19.0;;;10.8;;
79592;SDS011;69074;45.164;9.704;2023-10-09T00:56:59;19.0;;;10.8;;
79592;SDS011;69074;45.164;9.704;2023-10-09T00:59:24;19.0;;;10.8;;
79592;SDS011;69074;45.164;9.704;2023-10-09T01:01:49;22.9;;;11.0;;
79592;SDS011;69074;45.164;9.704;2023-10-09T01:04:14;22.9;;;11.0;;
79592;SDS011;69074;45.164;9.704;2023-10-09T01:06:40;22.9;;;11.0;;
79592;SDS011;69074;45.164;9.704;2023-10-09T01:09:04;22.9;;;11.0;;
79592;SDS011;69074;45.164;9.704;2023-10-09T01:11:29;22.9;;;11.0;;
79592;SDS011;69074;45.164;9.704;2023-10-09T01:13:54;22.9;;;11.0;;
79592;SDS011;69074;45.164;9.704;2023-10-09T01:16:21;17.2;;;9.7;;
79592;SDS011;69074;45.164;9.704;2023-10-09T01:18:44;17.2;;;9.7;;
79592;SDS011;69074;45.164;9.704;2023-10-09T01:21:09;17.2;;;9.7;;
79592;SDS011;69074;45.164;9.704;2023-10-09T01:23:34;17.2;;;9.7;;
79592;SDS011;69074;45.164;9.704;2023-10-09T01:25:59;17.2;;;9.7;;
79592;SDS011;69074;45.164;9.704;2023-10-09T01:28:24;17.2;;;9.7;;
79592;SDS011;69074;45.164;9.704;2023-10-09T01:30:49;17.8;;;10.0;;
79592;SDS011;69074;45.164;9.704;2023-10-09T01:33:14;17.8;;;10.0;;
79592;SDS011;69074;45.164;9.704;2023-10-09T01:35:39;17.8;;;10.0;;
79592;SDS011;69074;45.164;9.704;2023-10-09T01:38:04;17.8;;;10.0;;
79592;SDS011;69074;45.164;9.704;2023-10-09T01:40:29;17.8;;;10.0;;
79592;SDS011;69074;45.164;9.704;2023-10-09T01:42:54;17.8;;;10.0;;
79592;SDS011;69074;45.164;9.704;2023-10-09T01:45:19;17.8;;;10.0;;
79592;SDS011;69074;45.164;9.704;2023-10-09T01:47:44;20.5;;;10.6;;
79592;SDS011;69074;45.164;9.704;2023-10-09T01:50:09;20.5;;;10.6;;
79592;SDS011;69074;45.164;9.704;2023-10-09T01:52:34;20.5;;;10.6;;
79592;SDS011;69074;45.164;9.704;2023-10-09T01:54:59;20.5;;;10.6;;
79592;SDS011;69074;45.164;9.704;2023-10-09T01:57:24;20.5;;;10.6;;
79592;SDS011;69074;45.164;9.704;2023-10-09T01:59:50;20.5;;;10.6;;
79592;SDS011;69074;45.164;9.704;2023-10-09T02:02:14;18.9;;;10.5;;
79592;SDS011;69074;45.164;9.704;2023-10-09T02:04:39;18.9;;;10.5;;
79592;SDS011;69074;45.164;9.704;2023-10-09T02:07:04;18.9;;;10.5;;
79592;SDS011;69074;45.164;9.704;2023-10-09T02:09:29;18.9;;;10.5;;
79592;SDS011;69074;45.164;9.704;2023-10-09T02:11:54;18.9;;;10.5;;
79592;SDS011;69074;45.164;9.704;2023-10-09T02:14:19;18.9;;;10.5;;
79592;SDS011;69074;45.164;9.704;2023-10-09T02:16:44;21.4;;;8.7;;
79592;SDS011;69074;45.164;9.704;2023-10-09T02:19:09;21.4;;;8.7;;
79592;SDS011;69074;45.164;9.704;2023-10-09T02:21:34;21.4;;;8.7;;
79592;SDS011;69074;45.164;9.704;2023-10-09T02:23:59;21.4;;;8.7;;
79592;SDS011;69074;45.164;9.704;2023-10-09T02:26:24;21.4;;;8.7;;
79592;SDS011;69074;45.164;9.704;2023-10-09T02:28:49;21.4;;;8.7;;
79592;SDS011;69074;45.164;9.704;2023-10-09T02:31:14;19.9;;;8.3;;
79592;SDS011;69074;45.164;9.704;2023-10-09T02:33:39;19.9;;;8.3;;
79592;SDS011;69074;45.164;9.704;2023-10-09T02:36:04;19.9;;;8.3;;
79592;SDS011;69074;45.164;9.704;2023-10-09T02:38:29;19.9;;;8.3;;
79592;SDS011;69074;45.164;9.704;2023-10-09T02:40:54;19.9;;;8.3;;
79592;SDS011;69074;45.164;9.704;2023-10-09T02:43:19;19.9;;;8.3;;
79592;SDS011;69074;45.164;9.704;2023-10-09T02:45:44;18.1;;;7.2;;
79592;SDS011;69074;45.164;9.704;2023-10-09T02:48:09;18.1;;;7.2;;
79592;SDS011;69074;45.164;9.704;2023-10-09T02:50:34;18.1;;;7.2;;
79592;SDS011;69074;45.164;9.704;2023-10-09T02:52:59;18.1;;;7.2;;
79592;SDS011;69074;45.164;9.704;2023-10-09T02:55:24;18.1;;;7.2;;
79592;SDS011;69074;45.164;9.704;2023-10-09T02:57:49;18.1;;;7.2;;
79592;SDS011;69074;45.164;9.704;2023-10-09T03:00:14;18.1;;;7.2;;
79592;SDS011;69074;45.164;9.704;2023-10-09T03:02:39;18.8;;;8.2;;
79592;SDS011;69074;45.164;9.704;2023-10-09T03:05:04;18.8;;;8.2;;
79592;SDS011;69074;45.164;9.704;2023-10-09T03:07:29;18.8;;;8.2;;
79592;SDS011;69074;45.164;9.704;2023-10-09T03:09:54;18.8;;;8.2;;
79592;SDS011;69074;45.164;9.704;2023-10-09T03:12:19;18.8;;;8.2;;
79592;SDS011;69074;45.164;9.704;2023-10-09T03:14:44;18.8;;;8.2;;
79592;SDS011;69074;45.164;9.704;2023-10-09T03:17:09;20.7;;;8.8;;
79592;SDS011;69074;45.164;9.704;2023-10-09T03:19:34;20.7;;;8.8;;
79592;SDS011;69074;45.164;9.704;2023-10-09T03:21:59;20.7;;;8.8;;
79592;SDS011;69074;45.164;9.704;2023-10-09T03:24:24;20.7;;;8.8;;
79592;SDS011;69074;45.164;9.704;2023-10-09T03:26:49;20.7;;;8.8;;
79592;SDS011;69074;45.164;9.704;2023-10-09T03:29:14;20.7;;;8.8;;
79592;SDS011;69074;45.164;9.704;2023-10-09T03:31:39;18.1;;;9.1;;
79592;SDS011;69074;45.164;9.704;2023-10-09T03:34:04;18.1;;;9.1;;
79592;SDS011;69074;45.164;9.704;2023-10-09T03:36:29;18.1;;;9.1;;
79592;SDS011;69074;45.164;9.704;2023-10-09T03:38:54;18.1;;;9.1;;
79592;SDS011;69074;45.164;9.704;2023-10-09T03:41:19;18.1;;;9.1;;
79592;SDS011;69074;45.164;9.704;2023-10-09T03:43:44;18.1;;;9.1;;
79592;SDS011;69074;45.164;9.704;2023-10-09T03:46:09;21.5;;;8.2;;
79592;SDS011;69074;45.164;9.704;2023-10-09T03:48:34;21.5;;;8.2;;
79592;SDS011;69074;45.164;9.704;2023-10-09T03:50:59;21.5;;;8.2;;
79592;SDS011;69074;45.164;9.704;2023-10-09T03:53:24;21.5;;;8.2;;
79592;SDS011;69074;45.164;9.704;2023-10-09T03:55:49;21.5;;;8.2;;
79592;SDS011;69074;45.164;9.704;2023-10-09T03:58:14;21.5;;;8.2;;
79592;SDS011;69074;45.164;9.704;2023-10-09T04:00:39;21.5;;;8.2;;
79592;SDS011;69074;45.164;9.704;2023-10-09T04:03:04;28.7;;;8.2;;
79592;SDS011;69074;45.164;9.704;2023-10-09T04:05:29;28.7;;;8.2;;
79592;SDS011;69074;45.164;9.704;2023-10-09T04:07:54;28.7;;;8.2;;
79592;SDS011;69074;45.164;9.704;2023-10-09T04:10:19;28.7;;;8.2;;
79592;SDS011;69074;45.164;9.704;2023-10-09T04:12:44;28.7;;;8.2;;
79592;SDS011;69074;45.164;9.704;2023-10-09T04:15:09;28.7;;;8.2;;
79592;SDS011;69074;45.164;9.704;2023-10-09T04:17:34;17.7;;;8.1;;
79592;SDS011;69074;45.164;9.704;2023-10-09T04:19:59;17.7;;;8.1;;
79592;SDS011;69074;45.164;9.704;2023-10-09T04:22:24;17.7;;;8.1;;
79592;SDS011;69074;45.164;9.704;2023-10-09T04:24:49;17.7;;;8.1;;
79592;SDS011;69074;45.164;9.704;2023-10-09T04:27:14;17.7;;;8.1;;
79592;SDS011;69074;45.164;9.704;2023-10-09T04:29:39;17.7;;;8.1;;
79592;SDS011;69074;45.164;9.704;2023-10-09T04:32:04;19.4;;;9.0;;
79592;SDS011;69074;45.164;9.704;2023-10-09T04:34:29;19.4;;;9.0;;
79592;SDS011;69074;45.164;9.704;2023-10-09T04:36:55;19.4;;;9.0;;
79592;SDS011;69074;45.164;9.704;2023-10-09T04:39:19;19.4;;;9.0;;
79592;SDS011;69074;45.164;9.704;2023-10-09T04:41:44;19.4;;;9.0;;
79592;SDS011;69074;45.164;9.704;2023-10-09T04:44:09;19.4;;;9.0;;
79592;SDS011;69074;45.164;9.704;2023-10-09T04:46:34;19.9;;;9.5;;
79592;SDS011;69074;45.164;9.704;2023-10-09T04:48:59;19.9;;;9.5;;
79592;SDS011;69074;45.164;9.704;2023-10-09T04:51:24;19.9;;;9.5;;
79592;SDS011;69074;45.164;9.704;2023-10-09T04:53:49;19.9;;;9.5;;
79592;SDS011;69074;45.164;9.704;2023-10-09T04:56:14;19.9;;;9.5;;
79592;SDS011;69074;45.164;9.704;2023-10-09T04:58:39;19.9;;;9.5;;
79592;SDS011;69074;45.164;9.704;2023-10-09T05:01:04;15.9;;;9.3;;
79592;SDS011;69074;45.164;9.704;2023-10-09T05:03:29;15.9;;;9.3;;
79592;SDS011;69074;45.164;9.704;2023-10-09T05:05:54;15.9;;;9.3;;
79592;SDS011;69074;45.164;9.704;2023-10-09T05:08:19;15.9;;;9.3;;
79592;SDS011;69074;45.164;9.704;2023-10-09T05:10:44;15.9;;;9.3;;
79592;SDS011;69074;45.164;9.704;2023-10-09T05:13:09;15.9;;;9.3;;
79592;SDS011;69074;45.164;9.704;2023-10-09T05:15:34;15.9;;;9.3;;
79592;SDS011;69074;45.164;9.704;2023-10-09T05:17:59;19.1;;;9.6;;
79592;SDS011;69074;45.164;9.704;2023-10-09T05:20:24;19.1;;;9.6;;
79592;SDS011;69074;45.164;9.704;2023-10-09T05:22:49;19.1;;;9.6;;
79592;SDS011;69074;45.164;9.704;2023-10-09T05:25:14;19.1;;;9.6;;
79592;SDS011;69074;45.164;9.704;2023-10-09T05:27:39;19.1;;;9.6;;
79592;SDS011;69074;45.164;9.704;2023-10-09T05:30:04;19.1;;;9.6;;
79592;SDS011;69074;45.164;9.704;2023-10-09T05:32:29;23.5;;;9.4;;
79592;SDS011;69074;45.164;9.704;2023-10-09T05:34:54;23.5;;;9.4;;
79592;SDS011;69074;45.164;9.704;2023-10-09T05:37:19;23.5;;;9.4;;
79592;SDS011;69074;45.164;9.704;2023-10-09T05:39:44;23.5;;;9.4;;
79592;SDS011;69074;45.164;9.704;2023-10-09T05:42:09;23.5;;;9.4;;
79592;SDS011;69074;45.164;9.704;2023-10-09T05:44:34;23.5;;;9.4;;
79592;SDS011;69074;45.164;9.704;2023-10-09T05:46:59;19.7;;;9.3;;
79592;SDS011;69074;45.164;9.704;2023-10-09T05:49:24;19.7;;;9.3;;
79592;SDS011;69074;45.164;9.704;2023-10-09T05:51:49;19.7;;;9.3;;
79592;SDS011;69074;45.164;9.704;2023-10-09T05:54:14;19.7;;;9.3;;
79592;SDS011;69074;45.164;9.704;2023-10-09T05:56:39;19.7;;;9.3;;
79592;SDS011;69074;45.164;9.704;2023-10-09T05:59:04;19.7;;;9.3;;
79592;SDS011;69074;45.164;9.704;2023-10-09T06:01:29;19.7;;;10.0;;
79592;SDS011;69074;45.164;9.704;2023-10-09T06:03:54;19.7;;;10.0;;
79592;SDS011;69074;45.164;9.704;2023-10-09T06:06:19;19.7;;;10.0;;
79592;SDS011;69074;45.164;9.704;2023-10-09T06:08:44;19.7;;;10.0;;
79592;SDS011;69074;45.164;9.704;2023-10-09T06:11:09;19.7;;;10.0;;
79592;SDS011;69074;45.164;9.704;2023-10-09T06:13:34;19.7;;;10.0;;
79592;SDS011;69074;45.164;9.704;2023-10-09T06:15:59;17.7;;;10.6;;
79592;SDS011;69074;45.164;9.704;2023-10-09T06:18:24;17.7;;;10.6;;
79592;SDS011;69074;45.164;9.704;2023-10-09T06:20:49;17.7;;;10.6;;
79592;SDS011;69074;45.164;9.704;2023-10-09T06:23:14;17.7;;;10.6;;
79592;SDS011;69074;45.164;9.704;2023-10-09T06:25:39;17.7;;;10.6;;
79592;SDS011;69074;45.164;9.704;2023-10-09T06:28:04;17.7;;;10.6;;
79592;SDS011;69074;45.164;9.704;2023-10-09T06:30:29;17.7;;;10.6;;
79592;SDS011;69074;45.164;9.704;2023-10-09T06:32:54;17.7;;;10.0;;
79592;SDS011;69074;45.164;9.704;2023-10-09T06:35:19;17.7;;;10.0;;
79592;SDS011;69074;45.164;9.704;2023-10-09T06:37:44;17.7;;;10.0;;
79592;SDS011;69074;45.164;9.704;2023-10-09T06:40:09;17.7;;;10.0;;
79592;SDS011;69074;45.164;9.704;2023-10-09T06:42:34;17.7;;;10.0;;
79592;SDS011;69074;45.164;9.704;2023-10-09T06:44:59;17.7;;;10.0;;
79592;SDS011;69074;45.164;9.704;2023-10-09T06:47:24;40.3;;;26.2;;
79592;SDS011;69074;45.164;9.704;2023-10-09T06:49:49;40.3;;;26.2;;
79592;SDS011;69074;45.164;9.704;2023-10-09T06:52:14;40.3;;;26.2;;
79592;SDS011;69074;45.164;9.704;2023-10-09T06:54:40;40.3;;;26.2;;
79592;SDS011;69074;45.164;9.704;2023-10-09T06:57:04;40.3;;;26.2;;
79592;SDS011;69074;45.164;9.704;2023-10-09T06:59:29;40.3;;;26.2;;
79592;SDS011;69074;45.164;9.704;2023-10-09T07:01:54;29.8;;;15.7;;
79592;SDS011;69074;45.164;9.704;2023-10-09T07:04:19;29.8;;;15.7;;
79592;SDS011;69074;45.164;9.704;2023-10-09T07:06:44;29.8;;;15.7;;
79592;SDS011;69074;45.164;9.704;2023-10-09T07:09:09;29.8;;;15.7;;
79592;SDS011;69074;45.164;9.704;2023-10-09T07:11:34;29.8;;;15.7;;
79592;SDS011;69074;45.164;9.704;2023-10-09T07:13:59;29.8;;;15.7;;
79592;SDS011;69074;45.164;9.704;2023-10-09T07:16:24;24.3;;;12.7;;
79592;SDS011;69074;45.164;9.704;2023-10-09T07:18:49;24.3;;;12.7;;
79592;SDS011;69074;45.164;9.704;2023-10-09T07:21:14;24.3;;;12.7;;
79592;SDS011;69074;45.164;9.704;2023-10-09T07:23:39;24.3;;;12.7;;
79592;SDS011;69074;45.164;9.704;2023-10-09T07:26:04;24.3;;;12.7;;
79592;SDS011;69074;45.164;9.704;2023-10-09T07:28:29;24.3;;;12.7;;
79592;SDS011;69074;45.164;9.704;2023-10-09T07:30:55;23.0;;;11.1;;
79592;SDS011;69074;45.164;9.704;2023-10-09T07:33:19;23.0;;;11.1;;
79592;SDS011;69074;45.164;9.704;2023-10-09T07:35:45;23.0;;;11.1;;
79592;SDS011;69074;45.164;9.704;2023-10-09T07:38:09;23.0;;;11.1;;
79592;SDS011;69074;45.164;9.704;2023-10-09T07:40:34;23.0;;;11.1;;
79592;SDS011;69074;45.164;9.704;2023-10-09T07:42:59;23.0;;;11.1;;
79592;SDS011;69074;45.164;9.704;2023-10-09T07:45:24;23.0;;;11.1;;
79592;SDS011;69074;45.164;9.704;2023-10-09T07:47:49;19.0;;;11.1;;
79592;SDS011;69074;45.164;9.704;2023-10-09T07:50:14;19.0;;;11.1;;
79592;SDS011;69074;45.164;9.704;2023-10-09T07:52:39;19.0;;;11.1;;
79592;SDS011;69074;45.164;9.704;2023-10-09T07:55:04;19.0;;;11.1;;
79592;SDS011;69074;45.164;9.704;2023-10-09T07:57:29;19.0;;;11.1;;
79592;SDS011;69074;45.164;9.704;2023-10-09T07:59:54;19.0;;;11.1;;
79592;SDS011;69074;45.164;9.704;2023-10-09T08:02:19;21.4;;;9.4;;
79592;SDS011;69074;45.164;9.704;2023-10-09T08:04:44;21.4;;;9.4;;
79592;SDS011;69074;45.164;9.704;2023-10-09T08:07:10;21.4;;;9.4;;
79592;SDS011;69074;45.164;9.704;2023-10-09T08:09:34;21.4;;;9.4;;
79592;SDS011;69074;45.164;9.704;2023-10-09T08:11:59;21.4;;;9.4;;
79592;SDS011;69074;45.164;9.704;2023-10-09T08:14:24;21.4;;;9.4;;
79592;SDS011;69074;45.164;9.704;2023-10-09T08:16:50;20.6;;;8.6;;
79592;SDS011;69074;45.164;9.704;2023-10-09T08:19:14;20.6;;;8.6;;
79592;SDS011;69074;45.164;9.704;2023-10-09T08:21:39;20.6;;;8.6;;
79592;SDS011;69074;45.164;9.704;2023-10-09T08:24:04;20.6;;;8.6;;
79592;SDS011;69074;45.164;9.704;2023-10-09T08:26:29;20.6;;;8.6;;
79592;SDS011;69074;45.164;9.704;2023-10-09T08:28:54;20.6;;;8.6;;
79592;SDS011;69074;45.164;9.704;2023-10-09T08:31:19;16.3;;;7.9;;
79592;SDS011;69074;45.164;9.704;2023-10-09T08:33:44;16.3;;;7.9;;
79592;SDS011;69074;45.164;9.704;2023-10-09T08:36:09;16.3;;;7.9;;
79592;SDS011;69074;45.164;9.704;2023-10-09T08:38:34;16.3;;;7.9;;
79592;SDS011;69074;45.164;9.704;2023-10-09T08:41:08;16.3;;;7.9;;
79592;SDS011;69074;45.164;9.704;2023-10-09T08:43:24;16.3;;;7.9;;
79592;SDS011;69074;45.164;9.704;2023-10-09T08:45:50;19.3;;;8.3;;
79592;SDS011;69074;45.164;9.704;2023-10-09T08:48:14;19.3;;;8.3;;
79592;SDS011;69074;45.164;9.704;2023-10-09T08:50:39;19.3;;;8.3;;
79592;SDS011;69074;45.164;9.704;2023-10-09T08:53:04;19.3;;;8.3;;
79592;SDS011;69074;45.164;9.704;2023-10-09T08:55:29;19.3;;;8.3;;
79592;SDS011;69074;45.164;9.704;2023-10-09T08:57:54;19.3;;;8.3;;
79592;SDS011;69074;45.164;9.704;2023-10-09T09:00:19;19.3;;;8.3;;
79592;SDS011;69074;45.164;9.704;2023-10-09T09:02:44;16.8;;;7.3;;
79592;SDS011;69074;45.164;9.704;2023-10-09T09:05:15;16.8;;;7.3;;
79592;SDS011;69074;45.164;9.704;2023-10-09T09:07:34;16.8;;;7.3;;
79592;SDS011;69074;45.164;9.704;2023-10-09T09:09:59;16.8;;;7.3;;
79592;SDS011;69074;45.164;9.704;2023-10-09T09:12:24;16.8;;;7.3;;
79592;SDS011;69074;45.164;9.704;2023-10-09T09:14:49;16.8;;;7.3;;
79592;SDS011;69074;45.164;9.704;2023-10-09T09:17:14;22.7;;;6.9;;
79592;SDS011;69074;45.164;9.704;2023-10-09T09:19:39;22.7;;;6.9;;
79592;SDS011;69074;45.164;9.704;2023-10-09T09:22:04;22.7;;;6.9;;
79592;SDS011;69074;45.164;9.704;2023-10-09T09:24:29;22.7;;;6.9;;
79592;SDS011;69074;45.164;9.704;2023-10-09T09:26:54;22.7;;;6.9;;
79592;SDS011;69074;45.164;9.704;2023-10-09T09:29:19;22.7;;;6.9;;
79592;SDS011;69074;45.164;9.704;2023-10-09T09:31:51;34.2;;;19.3;;
79592;SDS011;69074;45.164;9.704;2023-10-09T09:34:09;34.2;;;19.3;;
79592;SDS011;69074;45.164;9.704;2023-10-09T09:36:34;34.2;;;19.3;;
79592;SDS011;69074;45.164;9.704;2023-10-09T09:38:59;34.2;;;19.3;;
79592;SDS011;69074;45.164;9.704;2023-10-09T09:41:24;34.2;;;19.3;;
79592;SDS011;69074;45.164;9.704;2023-10-09T09:43:51;34.2;;;19.3;;
79592;SDS011;69074;45.164;9.704;2023-10-09T09:46:14;55.5;;;33.9;;
79592;SDS011;69074;45.164;9.704;2023-10-09T09:48:39;55.5;;;33.9;;
79592;SDS011;69074;45.164;9.704;2023-10-09T09:51:04;55.5;;;33.9;;
79592;SDS011;69074;45.164;9.704;2023-10-09T09:53:29;55.5;;;33.9;;
79592;SDS011;69074;45.164;9.704;2023-10-09T09:55:54;55.5;;;33.9;;
79592;SDS011;69074;45.164;9.704;2023-10-09T09:58:19;55.5;;;33.9;;
79592;SDS011;69074;45.164;9.704;2023-10-09T10:00:44;34.7;;;17.3;;
79592;SDS011;69074;45.164;9.704;2023-10-09T10:03:10;34.7;;;17.3;;
79592;SDS011;69074;45.164;9.704;2023-10-09T10:05:34;34.7;;;17.3;;
79592;SDS011;69074;45.164;9.704;2023-10-09T10:07:59;34.7;;;17.3;;
79592;SDS011;69074;45.164;9.704;2023-10-09T10:10:40;34.7;;;17.3;;
79592;SDS011;69074;45.164;9.704;2023-10-09T10:12:49;34.7;;;17.3;;
79592;SDS011;69074;45.164;9.704;2023-10-09T10:15:14;34.7;;;17.3;;
79592;SDS011;69074;45.164;9.704;2023-10-09T10:17:52;24.2;;;12.0;;
79592;SDS011;69074;45.164;9.704;2023-10-09T10:20:05;24.2;;;12.0;;
79592;SDS011;69074;45.164;9.704;2023-10-09T10:22:29;24.2;;;12.0;;
79592;SDS011;69074;45.164;9.704;2023-10-09T10:24:54;24.2;;;12.0;;
79592;SDS011;69074;45.164;9.704;2023-10-09T10:27:20;24.2;;;12.0;;
79592;SDS011;69074;45.164;9.704;2023-10-09T10:29:44;24.2;;;12.0;;
79592;SDS011;69074;45.164;9.704;2023-10-09T10:32:09;20.3;;;10.6;;
79592;SDS011;69074;45.164;9.704;2023-10-09T10:34:51;20.3;;;10.6;;
79592;SDS011;69074;45.164;9.704;2023-10-09T10:36:59;20.3;;;10.6;;
79592;SDS011;69074;45.164;9.704;2023-10-09T10:39:25;20.3;;;10.6;;
79592;SDS011;69074;45.164;9.704;2023-10-09T10:41:52;20.3;;;10.6;;
79592;SDS011;69074;45.164;9.704;2023-10-09T10:44:14;20.3;;;10.6;;
79592;SDS011;69074;45.164;9.704;2023-10-09T10:46:40;39.8;;;24.2;;
79592;SDS011;69074;45.164;9.704;2023-10-09T10:49:05;39.8;;;24.2;;
79592;SDS011;69074;45.164;9.704;2023-10-09T10:51:34;39.8;;;24.2;;
79592;SDS011;69074;45.164;9.704;2023-10-09T10:53:54;39.8;;;24.2;;
79592;SDS011;69074;45.164;9.704;2023-10-09T10:56:19;39.8;;;24.2;;
79592;SDS011;69074;45.164;9.704;2023-10-09T10:58:51;39.8;;;24.2;;
79592;SDS011;69074;45.164;9.704;2023-10-09T11:01:09;20.7;;;10.5;;
79592;SDS011;69074;45.164;9.704;2023-10-09T11:03:34;20.7;;;10.5;;
79592;SDS011;69074;45.164;9.704;2023-10-09T11:06:00;20.7;;;10.5;;
79592;SDS011;69074;45.164;9.704;2023-10-09T11:08:25;20.7;;;10.5;;
79592;SDS011;69074;45.164;9.704;2023-10-09T11:10:50;20.7;;;10.5;;
79592;SDS011;69074;45.164;9.704;2023-10-09T11:13:20;20.7;;;10.5;;
79592;SDS011;69074;45.164;9.704;2023-10-09T11:15:39;20.7;;;10.5;;
79592;SDS011;69074;45.164;9.704;2023-10-09T11:18:05;34.2;;;19.0;;
79592;SDS011;69074;45.164;9.704;2023-10-09T11:20:29;34.2;;;19.0;;
79592;SDS011;69074;45.164;9.704;2023-10-09T11:22:54;34.2;;;19.0;;
79592;SDS011;69074;45.164;9.704;2023-10-09T11:25:19;34.2;;;19.0;;
79592;SDS011;69074;45.164;9.704;2023-10-09T11:27:44;34.2;;;19.0;;
79592;SDS011;69074;45.164;9.704;2023-10-09T11:30:09;34.2;;;19.0;;
79592;SDS011;69074;45.164;9.704;2023-10-09T11:32:35;21.8;;;13.3;;
79592;SDS011;69074;45.164;9.704;2023-10-09T11:35:15;21.8;;;13.3;;
79592;SDS011;69074;45.164;9.704;2023-10-09T11:37:24;21.8;;;13.3;;
79592;SDS011;69074;45.164;9.704;2023-10-09T11:39:49;21.8;;;13.3;;
79592;SDS011;69074;45.164;9.704;2023-10-09T11:42:14;21.8;;;13.3;;
79592;SDS011;69074;45.164;9.704;2023-10-09T11:44:40;21.8;;;13.3;;
79592;SDS011;69074;45.164;9.704;2023-10-09T11:47:04;32.2;;;17.6;;
79592;SDS011;69074;45.164;9.704;2023-10-09T11:49:29;32.2;;;17.6;;
79592;SDS011;69074;45.164;9.704;2023-10-09T11:52:04;32.2;;;17.6;;
79592;SDS011;69074;45.164;9.704;2023-10-09T11:54:28;32.2;;;17.6;;
79592;SDS011;69074;45.164;9.704;2023-10-09T11:56:44;32.2;;;17.6;;
79592;SDS011;69074;45.164;9.704;2023-10-09T11:59:09;32.2;;;17.6;;
79592;SDS011;69074;45.164;9.704;2023-10-09T12:01:34;31.5;;;22.7;;
79592;SDS011;69074;45.164;9.704;2023-10-09T12:03:59;31.5;;;22.7;;
79592;SDS011;69074;45.164;9.704;2023-10-09T12:06:24;31.5;;;22.7;;
79592;SDS011;69074;45.164;9.704;2023-10-09T12:08:49;31.5;;;22.7;;
79592;SDS011;69074;45.164;9.704;2023-10-09T12:11:15;31.5;;;22.7;;
79592;SDS011;69074;45.164;9.704;2023-10-09T12:13:39;31.5;;;22.7;;
79592;SDS011;69074;45.164;9.704;2023-10-09T12:16:04;24.7;;;14.9;;
79592;SDS011;69074;45.164;9.704;2023-10-09T12:18:29;24.7;;;14.9;;
79592;SDS011;69074;45.164;9.704;2023-10-09T12:20:54;24.7;;;14.9;;
79592;SDS011;69074;45.164;9.704;2023-10-09T12:23:20;24.7;;;14.9;;
79592;SDS011;69074;45.164;9.704;2023-10-09T12:25:44;24.7;;;14.9;;
79592;SDS011;69074;45.164;9.704;2023-10-09T12:28:10;24.7;;;14.9;;
79592;SDS011;69074;45.164;9.704;2023-10-09T12:30:34;24.7;;;14.9;;
79592;SDS011;69074;45.164;9.704;2023-10-09T12:32:59;34.0;;;17.9;;
79592;SDS011;69074;45.164;9.704;2023-10-09T12:35:25;34.0;;;17.9;;
79592;SDS011;69074;45.164;9.704;2023-10-09T12:37:50;34.0;;;17.9;;
79592;SDS011;69074;45.164;9.704;2023-10-09T12:40:15;34.0;;;17.9;;
79592;SDS011;69074;45.164;9.704;2023-10-09T12:42:39;34.0;;;17.9;;
79592;SDS011;69074;45.164;9.704;2023-10-09T12:45:05;34.0;;;17.9;;
79592;SDS011;69074;45.164;9.704;2023-10-09T12:47:29;25.7;;;10.7;;
79592;SDS011;69074;45.164;9.704;2023-10-09T12:49:55;25.7;;;10.7;;
79592;SDS011;69074;45.164;9.704;2023-10-09T12:52:20;25.7;;;10.7;;
79592;SDS011;69074;45.164;9.704;2023-10-09T12:54:45;25.7;;;10.7;;
79592;SDS011;69074;45.164;9.704;2023-10-09T12:57:10;25.7;;;10.7;;
79592;SDS011;69074;45.164;9.704;2023-10-09T12:59:35;25.7;;;10.7;;
79592;SDS011;69074;45.164;9.704;2023-10-09T13:02:00;16.3;;;8.0;;
79592;SDS011;69074;45.164;9.704;2023-10-09T13:04:25;16.3;;;8.0;;
79592;SDS011;69074;45.164;9.704;2023-10-09T13:06:50;16.3;;;8.0;;
79592;SDS011;69074;45.164;9.704;2023-10-09T13:09:15;16.3;;;8.0;;
79592;SDS011;69074;45.164;9.704;2023-10-09T13:11:40;16.3;;;8.0;;
79592;SDS011;69074;45.164;9.704;2023-10-09T13:14:05;16.3;;;8.0;;
79592;SDS011;69074;45.164;9.704;2023-10-09T13:16:30;15.9;;;10.4;;
79592;SDS011;69074;45.164;9.704;2023-10-09T13:18:55;15.9;;;10.4;;
79592;SDS011;69074;45.164;9.704;2023-10-09T13:21:20;15.9;;;10.4;;
79592;SDS011;69074;45.164;9.704;2023-10-09T13:23:45;15.9;;;10.4;;
79592;SDS011;69074;45.164;9.704;2023-10-09T13:26:10;15.9;;;10.4;;
79592;SDS011;69074;45.164;9.704;2023-10-09T13:28:35;15.9;;;10.4;;
79592;SDS011;69074;45.164;9.704;2023-10-09T13:31:00;25.4;;;9.1;;
79592;SDS011;69074;45.164;9.704;2023-10-09T13:33:25;25.4;;;9.1;;
79592;SDS011;69074;45.164;9.704;2023-10-09T13:35:50;25.4;;;9.1;;
79592;SDS011;69074;45.164;9.704;2023-10-09T13:38:15;25.4;;;9.1;;
79592;SDS011;69074;45.164;9.704;2023-10-09T13:40:40;25.4;;;9.1;;
79592;SDS011;69074;45.164;9.704;2023-10-09T13:43:05;25.4;;;9.1;;
79592;SDS011;69074;45.164;9.704;2023-10-09T13:45:30;25.4;;;9.1;;
79592;SDS011;69074;45.164;9.704;2023-10-09T13:47:55;26.6;;;12.7;;
79592;SDS011;69074;45.164;9.704;2023-10-09T13:50:20;26.6;;;12.7;;
79592;SDS011;69074;45.164;9.704;2023-10-09T13:52:45;26.6;;;12.7;;
79592;SDS011;69074;45.164;9.704;2023-10-09T13:55:10;26.6;;;12.7;;
79592;SDS011;69074;45.164;9.704;2023-10-09T13:57:35;26.6;;;12.7;;
79592;SDS011;69074;45.164;9.704;2023-10-09T14:00:00;26.6;;;12.7;;
79592;SDS011;69074;45.164;9.704;2023-10-09T14:02:25;24.2;;;11.9;;
79592;SDS011;69074;45.164;9.704;2023-10-09T14:04:50;24.2;;;11.9;;
79592;SDS011;69074;45.164;9.704;2023-10-09T14:07:15;24.2;;;11.9;;
79592;SDS011;69074;45.164;9.704;2023-10-09T14:09:40;24.2;;;11.9;;
79592;SDS011;69074;45.164;9.704;2023-10-09T14:12:05;24.2;;;11.9;;
79592;SDS011;69074;45.164;9.704;2023-10-09T14:14:30;24.2;;;11.9;;
79592;SDS011;69074;45.164;9.704;2023-10-09T14:16:55;33.1;;;18.1;;
79592;SDS011;69074;45.164;9.704;2023-10-09T14:19:20;33.1;;;18.1;;
79592;SDS011;69074;45.164;9.704;2023-10-09T14:21:45;33.1;;;18.1;;
79592;SDS011;69074;45.164;9.704;2023-10-09T14:24:10;33.1;;;18.1;;
79592;SDS011;69074;45.164;9.704;2023-10-09T14:26:35;33.1;;;18.1;;
79592;SDS011;69074;45.164;9.704;2023-10-09T14:29:00;33.1;;;18.1;;
79592;SDS011;69074;45.164;9.704;2023-10-09T14:31:25;24.9;;;12.8;;
79592;SDS011;69074;45.164;9.704;2023-10-09T14:33:50;24.9;;;12.8;;
79592;SDS011;69074;45.164;9.704;2023-10-09T14:36:15;24.9;;;12.8;;
79592;SDS011;69074;45.164;9.704;2023-10-09T14:38:40;24.9;;;12.8;;